createdAt,value
2022-09-30T00:00:33.180Z,97343.44
2022-09-30T00:02:59.619Z,97346.03
2022-09-30T00:05:26.162Z,97331.44
2022-09-30T00:07:52.632Z,97341.97
2022-09-30T00:10:19.301Z,97334.59
2022-09-30T00:12:46.641Z,97333.50
2022-09-30T00:15:13.140Z,97332.03
2022-09-30T00:17:39.542Z,97334.19
2022-09-30T00:20:06.531Z,97341.53
2022-09-30T00:22:32.940Z,97348.69
2022-09-30T00:24:59.320Z,97331.66
2022-09-30T00:27:25.716Z,97255.06
2022-09-30T00:29:52.321Z,97316.97
2022-09-30T00:32:18.868Z,97350.44
2022-09-30T00:34:45.316Z,97349.03
2022-09-30T00:37:15.043Z,97307.91
2022-09-30T00:39:41.479Z,97358.09
2022-09-30T00:42:13.513Z,97362.34
2022-09-30T00:44:44.743Z,97354.94
2022-09-30T00:47:29.877Z,97358.97
2022-09-30T00:50:01.519Z,97352.72
2022-09-30T00:52:28.795Z,97367.22
2022-09-30T00:54:58.183Z,97347.56
2022-09-30T00:57:27.256Z,97372.28
2022-09-30T00:59:53.796Z,97369.97
2022-09-30T01:02:20.705Z,97360.09
2022-09-30T01:04:47.744Z,97366.22
2022-09-30T01:07:15.119Z,97370.31
2022-09-30T01:09:43.311Z,97370.69
2022-09-30T01:12:20.473Z,97368.03
2022-09-30T01:14:49.000Z,97374.34
2022-09-30T01:17:32.818Z,97371.69
2022-09-30T01:20:27.021Z,97362.94
2022-09-30T01:23:31.986Z,97374.19
2022-09-30T01:26:31.544Z,97375.19
2022-09-30T01:29:16.710Z,97380.91
2022-09-30T01:31:53.935Z,97378.84
2022-09-30T01:34:36.275Z,97383.47
2022-09-30T01:37:25.152Z,97383.91
2022-09-30T01:40:03.493Z,97372.97
2022-09-30T01:42:46.128Z,97362.19
2022-09-30T01:45:33.009Z,97381.13
2022-09-30T01:48:21.291Z,97378.25
2022-09-30T01:50:58.818Z,97373.69
2022-09-30T01:53:30.361Z,97374.72
2022-09-30T01:56:00.453Z,97375.63
2022-09-30T01:58:50.676Z,97371.53
2022-09-30T02:01:25.299Z,97372.88
2022-09-30T02:03:59.444Z,97381.06
2022-09-30T02:06:33.506Z,97380.03
2022-09-30T02:09:09.268Z,97381.53
2022-09-30T02:11:37.933Z,97387.59
2022-09-30T02:14:07.417Z,97388.50
2022-09-30T02:16:52.330Z,97391.72
2022-09-30T02:19:39.772Z,97400.22
2022-09-30T02:22:30.784Z,97400.63
2022-09-30T02:25:01.489Z,97404.06
2022-09-30T02:27:40.372Z,97404.72
2022-09-30T02:30:09.223Z,97400.31
2022-09-30T02:32:45.782Z,97410.38
2022-09-30T02:35:20.131Z,97417.91
2022-09-30T02:37:54.635Z,97404.69
2022-09-30T02:40:36.494Z,97418.91
2022-09-30T02:43:05.278Z,97419.56
2022-09-30T02:45:43.724Z,97407.81
2022-09-30T02:48:21.992Z,97416.28
2022-09-30T02:51:23.705Z,97422.41
2022-09-30T02:54:11.154Z,97419.97
2022-09-30T02:56:51.277Z,97425.44
2022-09-30T02:59:18.226Z,97419.22
2022-09-30T03:01:45.722Z,97413.56
2022-09-30T03:04:16.043Z,97410.75
2022-09-30T03:06:42.669Z,97411.75
2022-09-30T03:09:09.833Z,97419.75
2022-09-30T03:11:38.309Z,97397.88
2022-09-30T03:14:04.637Z,97418.16
2022-09-30T03:17:01.077Z,97423.03
2022-09-30T03:20:02.834Z,97422.56
2022-09-30T03:22:41.050Z,97424.38
2022-09-30T03:25:23.227Z,97423.44
2022-09-30T03:28:14.493Z,97425.47
2022-09-30T03:31:08.997Z,97431.78
2022-09-30T03:33:44.310Z,97431.78
2022-09-30T03:36:33.752Z,97431.19
2022-09-30T03:39:28.912Z,97428.19
2022-09-30T03:42:23.074Z,97430.59
2022-09-30T03:45:02.513Z,97435.25
2022-09-30T03:47:32.178Z,97415.66
2022-09-30T03:50:02.975Z,97445.09
2022-09-30T03:52:32.031Z,97421.38
2022-09-30T03:55:00.735Z,97441.84
2022-09-30T03:57:30.822Z,97437.56
2022-09-30T03:59:58.229Z,97449.97
2022-09-30T04:02:26.212Z,97434.56
2022-09-30T04:04:52.793Z,97454.44
2022-09-30T04:07:19.491Z,97437.00
2022-09-30T04:09:45.942Z,97461.75
2022-09-30T04:12:12.525Z,97470.09
2022-09-30T04:14:38.956Z,97465.00
2022-09-30T04:17:06.194Z,97465.19
2022-09-30T04:19:38.085Z,97472.34
2022-09-30T04:22:04.530Z,97473.75
2022-09-30T04:24:30.891Z,97469.09
2022-09-30T04:26:57.491Z,97479.03
2022-09-30T04:29:24.995Z,97482.72
2022-09-30T04:31:51.479Z,97474.41
2022-09-30T04:34:17.851Z,97483.50
2022-09-30T04:36:44.776Z,97481.69
2022-09-30T04:39:11.176Z,97481.13
2022-09-30T04:41:38.296Z,97491.69
2022-09-30T04:44:07.434Z,97476.47
2022-09-30T04:46:36.560Z,97484.81
2022-09-30T04:49:09.059Z,97469.56
2022-09-30T04:51:36.172Z,97490.91
2022-09-30T04:54:03.280Z,97483.75
2022-09-30T04:56:29.783Z,97466.94
2022-09-30T04:58:56.203Z,97495.16
2022-09-30T05:01:23.434Z,97503.69
2022-09-30T05:03:50.676Z,97506.75
2022-09-30T05:06:17.224Z,97498.00
2022-09-30T05:08:46.186Z,97501.88
2022-09-30T05:11:21.142Z,97509.41
2022-09-30T05:13:48.649Z,97503.28
2022-09-30T05:16:16.231Z,97503.28
2022-09-30T05:18:45.647Z,97505.34
2022-09-30T05:21:14.284Z,97504.91
2022-09-30T05:23:40.809Z,97519.97
2022-09-30T05:26:11.965Z,97536.63
2022-09-30T05:28:39.571Z,97460.69
2022-09-30T05:31:06.448Z,97538.25
2022-09-30T05:33:34.741Z,97545.75
2022-09-30T05:36:03.358Z,97536.63
2022-09-30T05:38:30.098Z,97556.53
2022-09-30T05:40:56.750Z,97563.44
2022-09-30T05:43:23.866Z,97563.44
2022-09-30T05:45:55.375Z,97566.28
2022-09-30T05:48:23.360Z,97549.41
2022-09-30T05:50:54.372Z,97567.50
2022-09-30T05:53:20.856Z,97571.78
2022-09-30T05:55:48.137Z,97573.19
2022-09-30T05:58:15.249Z,97583.16
2022-09-30T06:00:43.305Z,97569.94
2022-09-30T06:03:09.758Z,97585.78
2022-09-30T06:05:37.019Z,97547.59
2022-09-30T06:08:04.385Z,97584.16
2022-09-30T06:10:30.912Z,97580.09
2022-09-30T06:12:59.045Z,97582.94
2022-09-30T06:15:26.871Z,97584.38
2022-09-30T06:17:54.377Z,97588.63
2022-09-30T06:20:20.889Z,97599.19
2022-09-30T06:22:47.340Z,97598.75
2022-09-30T06:25:14.383Z,97602.00
2022-09-30T06:27:44.458Z,97595.72
2022-09-30T06:30:11.344Z,97595.91
2022-09-30T06:32:37.806Z,97603.63
2022-09-30T06:35:04.452Z,97612.16
2022-09-30T06:37:30.861Z,97614.16
2022-09-30T06:39:57.265Z,97624.34
2022-09-30T06:42:24.903Z,97621.47
2022-09-30T06:44:53.445Z,97627.16
2022-09-30T06:47:25.068Z,97628.75
2022-09-30T06:49:52.959Z,97634.16
2022-09-30T06:52:20.063Z,97604.63
2022-09-30T06:54:48.520Z,97615.13
2022-09-30T06:57:14.885Z,97620.69
2022-09-30T06:59:41.288Z,97621.78
2022-09-30T07:02:11.239Z,97633.47
2022-09-30T07:04:37.818Z,97632.97
2022-09-30T07:07:04.322Z,97630.31
2022-09-30T07:09:32.035Z,97626.91
2022-09-30T07:11:58.647Z,97631.28
2022-09-30T07:14:25.347Z,97636.16
2022-09-30T07:16:52.932Z,97639.97
2022-09-30T07:19:22.831Z,97616.19
2022-09-30T07:21:50.319Z,97648.03
2022-09-30T07:24:17.465Z,97645.91
2022-09-30T07:26:45.316Z,97653.94
2022-09-30T07:29:13.760Z,97656.47
2022-09-30T07:31:40.929Z,97660.09
2022-09-30T07:34:09.223Z,97663.13
2022-09-30T07:36:38.148Z,97655.69
2022-09-30T07:39:07.580Z,97667.22
2022-09-30T07:41:38.794Z,97666.56
2022-09-30T07:44:06.319Z,97666.22
2022-09-30T07:46:34.400Z,97665.19
2022-09-30T07:49:03.947Z,97675.34
2022-09-30T07:51:37.284Z,97675.03
2022-09-30T07:54:16.102Z,97670.78
2022-09-30T07:57:10.093Z,97664.84
2022-09-30T07:59:31.675Z,97643.34
2022-09-30T08:01:58.590Z,97673.25
2022-09-30T08:07:17.856Z,97585.13
2022-09-30T08:09:44.673Z,97685.53
2022-09-30T08:12:11.130Z,97685.00
2022-09-30T08:14:37.665Z,97690.50
2022-09-30T08:17:04.462Z,97685.31
2022-09-30T08:19:31.303Z,97676.97
2022-09-30T08:21:58.075Z,97679.63
2022-09-30T08:24:26.255Z,97672.03
2022-09-30T08:26:53.182Z,97660.34
2022-09-30T08:29:35.839Z,97694.56
2022-09-30T08:32:06.693Z,97699.38
2022-09-30T08:34:35.260Z,97693.47
2022-09-30T08:37:04.959Z,97684.09
2022-09-30T08:39:35.129Z,97679.16
2022-09-30T08:42:13.931Z,97681.25
2022-09-30T08:44:48.918Z,97686.47
2022-09-30T08:47:53.945Z,97695.97
2022-09-30T08:50:50.039Z,97690.13
2022-09-30T08:53:26.512Z,97683.88
2022-09-30T08:55:57.126Z,97700.78
2022-09-30T08:58:28.356Z,97691.47
2022-09-30T09:01:05.358Z,97693.16
2022-09-30T09:03:34.073Z,97695.53
2022-09-30T09:06:18.121Z,97691.06
2022-09-30T09:09:10.613Z,97669.75
2022-09-30T09:11:52.250Z,97678.09
2022-09-30T09:14:32.829Z,97699.94
2022-09-30T09:17:15.972Z,97699.28
2022-09-30T09:19:51.377Z,97703.16
2022-09-30T09:22:22.447Z,97707.78
2022-09-30T09:24:53.377Z,97700.84
2022-09-30T09:27:26.228Z,97700.06
2022-09-30T09:30:07.231Z,97699.50
2022-09-30T09:32:35.356Z,97695.47
2022-09-30T09:35:12.737Z,97703.28
2022-09-30T09:38:00.728Z,97717.81
2022-09-30T09:40:44.930Z,97712.91
2022-09-30T09:43:24.941Z,97700.75
2022-09-30T09:46:10.765Z,97710.09
2022-09-30T09:48:38.074Z,97711.59
2022-09-30T09:51:23.007Z,97703.94
2022-09-30T09:53:53.621Z,97703.97
2022-09-30T09:56:24.713Z,97706.00
2022-09-30T09:59:08.943Z,97701.41
2022-09-30T10:01:47.606Z,97708.44
2022-09-30T10:04:19.517Z,97694.00
2022-09-30T10:06:52.241Z,97704.09
2022-09-30T10:09:26.655Z,97685.84
2022-09-30T10:12:05.211Z,97703.25
2022-09-30T10:14:46.065Z,97705.72
2022-09-30T10:17:21.512Z,97700.16
2022-09-30T10:19:54.150Z,97699.88
2022-09-30T10:22:26.969Z,97693.25
2022-09-30T10:25:10.038Z,97692.72
2022-09-30T10:27:36.850Z,97686.41
2022-09-30T10:30:04.098Z,97677.09
2022-09-30T10:32:32.040Z,97686.25
2022-09-30T10:35:24.119Z,97684.53
2022-09-30T10:37:53.041Z,97682.09
2022-09-30T10:40:23.109Z,97683.66
2022-09-30T10:42:49.618Z,97689.28
2022-09-30T10:45:32.910Z,97690.72
2022-09-30T10:48:03.446Z,97696.75
2022-09-30T10:50:29.901Z,97697.63
2022-09-30T10:52:59.132Z,97691.47
2022-09-30T10:55:31.523Z,97686.09
2022-09-30T10:58:20.827Z,97693.00
2022-09-30T11:00:52.856Z,97686.03
2022-09-30T11:03:29.547Z,97686.91
2022-09-30T11:05:59.564Z,97689.06
2022-09-30T11:08:47.310Z,97681.00
2022-09-30T11:11:27.761Z,97685.28
2022-09-30T11:14:13.990Z,97697.06
2022-09-30T11:17:00.363Z,97674.69
2022-09-30T11:19:44.094Z,97689.75
2022-09-30T11:22:35.176Z,97690.88
2022-09-30T11:25:01.885Z,97688.25
2022-09-30T11:27:50.397Z,97692.81
2022-09-30T11:30:24.109Z,97684.47
2022-09-30T11:32:56.787Z,97690.94
2022-09-30T11:35:42.953Z,97694.69
2022-09-30T11:38:42.081Z,97665.66
2022-09-30T11:41:26.348Z,97691.47
2022-09-30T11:44:24.681Z,97686.56
2022-09-30T11:47:11.972Z,97682.22
2022-09-30T11:50:04.953Z,97692.13
2022-09-30T11:52:56.482Z,97687.31
2022-09-30T11:55:58.149Z,97696.44
2022-09-30T11:58:41.058Z,97691.84
2022-09-30T12:01:43.898Z,97691.09
2022-09-30T12:04:18.542Z,97668.75
2022-09-30T12:07:03.945Z,97685.97
2022-09-30T12:09:45.765Z,97700.81
2022-09-30T12:12:16.658Z,97710.75
2022-09-30T12:14:51.550Z,97710.25
2022-09-30T12:17:31.282Z,97706.53
2022-09-30T12:20:05.193Z,97707.00
2022-09-30T12:22:41.511Z,97691.38
2022-09-30T12:25:31.744Z,97700.81
2022-09-30T12:28:51.220Z,97699.53
2022-09-30T12:31:45.456Z,97696.84
2022-09-30T12:34:44.431Z,97694.66
2022-09-30T12:37:29.390Z,97690.88
2022-09-30T12:40:08.163Z,97703.75
2022-09-30T12:43:15.584Z,97706.97
2022-09-30T12:46:04.887Z,97706.97
2022-09-30T12:48:46.769Z,97680.88
2022-09-30T12:51:24.323Z,97710.75
2022-09-30T12:53:58.831Z,97708.63
2022-09-30T12:56:29.659Z,97691.97
2022-09-30T12:58:57.842Z,97709.16
2022-09-30T13:01:29.821Z,97709.44
2022-09-30T13:04:02.013Z,97703.53
2022-09-30T13:06:48.393Z,97704.34
2022-09-30T13:09:22.403Z,97710.28
2022-09-30T13:12:31.620Z,97718.28
2022-09-30T13:15:37.418Z,97705.44
2022-09-30T13:18:19.179Z,97709.72
2022-09-30T13:20:56.284Z,97710.53
2022-09-30T13:23:42.445Z,97719.97
2022-09-30T13:26:33.347Z,97716.47
2022-09-30T13:29:00.029Z,97722.66
2022-09-30T13:31:28.667Z,97718.00
2022-09-30T13:34:04.013Z,97721.50
2022-09-30T13:36:52.483Z,97714.53
2022-09-30T13:39:25.934Z,97708.41
2022-09-30T13:42:04.988Z,97707.06
2022-09-30T13:44:57.582Z,97698.47
2022-09-30T13:47:27.298Z,97703.84
2022-09-30T13:50:04.366Z,97693.34
2022-09-30T13:52:34.360Z,97707.56
2022-09-30T13:55:16.775Z,97697.88
2022-09-30T13:58:11.032Z,97708.09
2022-09-30T14:01:04.904Z,97703.75
2022-09-30T14:03:52.975Z,97679.03
2022-09-30T14:06:46.288Z,97653.28
2022-09-30T14:09:12.815Z,97705.94
2022-09-30T14:12:02.855Z,97697.13
2022-09-30T14:14:44.489Z,97703.28
2022-09-30T14:17:36.880Z,97705.97
2022-09-30T14:20:06.354Z,97701.69
2022-09-30T14:22:35.950Z,97686.03
2022-09-30T14:25:03.649Z,97705.69
2022-09-30T14:27:55.476Z,97704.63
2022-09-30T14:30:24.551Z,97716.69
2022-09-30T14:32:55.717Z,97711.59
2022-09-30T14:35:31.294Z,97705.41
2022-09-30T14:38:02.256Z,97705.38
2022-09-30T14:40:34.016Z,97693.00
2022-09-30T14:43:06.708Z,97705.34
2022-09-30T14:45:37.000Z,97710.16
2022-09-30T14:48:10.223Z,97713.34
2022-09-30T14:50:48.244Z,97708.78
2022-09-30T14:53:29.633Z,97693.97
2022-09-30T14:55:57.037Z,97699.06
2022-09-30T14:58:30.630Z,97696.09
2022-09-30T15:01:08.176Z,97706.00
2022-09-30T15:03:40.519Z,97680.25
2022-09-30T15:06:20.898Z,97685.84
2022-09-30T15:08:49.151Z,97665.44
2022-09-30T15:11:21.382Z,97683.50
2022-09-30T15:13:51.681Z,97685.91
2022-09-30T15:16:30.286Z,97684.06
2022-09-30T15:18:57.733Z,97677.00
2022-09-30T15:21:25.381Z,97683.72
2022-09-30T15:23:55.401Z,97660.34
2022-09-30T15:26:24.175Z,97682.41
2022-09-30T15:28:51.275Z,97677.31
2022-09-30T15:31:23.573Z,97681.88
2022-09-30T15:34:01.329Z,97683.78
2022-09-30T15:36:27.962Z,97682.97
2022-09-30T15:38:54.480Z,97676.25
2022-09-30T15:41:21.086Z,97678.31
2022-09-30T15:43:52.673Z,97677.28
2022-09-30T15:46:30.222Z,97685.84
2022-09-30T15:49:02.161Z,97657.63
2022-09-30T15:51:38.122Z,97680.22
2022-09-30T15:54:23.878Z,97675.59
2022-09-30T15:56:50.411Z,97680.94
2022-09-30T15:59:16.821Z,97679.38
2022-09-30T16:01:43.309Z,97673.16
2022-09-30T16:04:24.482Z,97671.81
2022-09-30T16:06:53.531Z,97680.34
2022-09-30T16:09:19.878Z,97676.13
2022-09-30T16:11:53.837Z,97670.94
2022-09-30T16:14:28.275Z,97669.06
2022-09-30T16:16:58.308Z,97684.28
2022-09-30T16:19:26.227Z,97685.09
2022-09-30T16:21:54.825Z,97686.69
2022-09-30T16:24:21.153Z,97693.13
2022-09-30T16:26:49.234Z,97694.97
2022-09-30T16:29:17.861Z,97678.75
2022-09-30T16:31:46.687Z,97691.50
2022-09-30T16:34:33.328Z,97694.69
2022-09-30T16:37:14.670Z,97695.19
2022-09-30T16:39:41.094Z,97690.31
2022-09-30T16:42:13.769Z,97691.59
2022-09-30T16:44:42.290Z,97693.41
2022-09-30T16:47:13.036Z,97697.09
2022-09-30T16:49:40.269Z,97697.03
2022-09-30T16:52:06.633Z,97705.03
2022-09-30T16:54:33.127Z,97704.94
2022-09-30T16:57:00.942Z,97706.47
2022-09-30T16:59:27.595Z,97707.34
2022-09-30T17:01:54.085Z,97709.97
2022-09-30T17:04:20.856Z,97704.31
2022-09-30T17:06:47.355Z,97703.41
2022-09-30T17:09:14.028Z,97706.59
2022-09-30T17:11:40.410Z,97711.06
2022-09-30T17:14:06.857Z,97712.81
2022-09-30T17:16:34.174Z,97723.41
2022-09-30T17:19:00.851Z,97719.50
2022-09-30T17:21:27.321Z,97724.72
2022-09-30T17:23:55.122Z,97722.66
2022-09-30T17:26:21.763Z,97731.03
2022-09-30T17:28:48.212Z,97734.75
2022-09-30T17:31:15.030Z,97734.34
2022-09-30T17:33:42.203Z,97743.25
2022-09-30T17:36:11.209Z,97735.31
2022-09-30T17:38:38.513Z,97740.53
2022-09-30T17:41:25.345Z,97748.28
2022-09-30T17:43:51.935Z,97751.31
2022-09-30T17:46:22.988Z,97765.31
2022-09-30T17:48:51.961Z,97756.00
2022-09-30T17:51:18.325Z,97763.13
2022-09-30T17:53:45.380Z,97761.53
2022-09-30T17:56:20.909Z,97769.84
2022-09-30T17:58:49.023Z,97770.34
2022-09-30T18:01:17.646Z,97773.91
2022-09-30T18:03:45.697Z,97781.47
2022-09-30T18:06:14.396Z,97780.66
2022-09-30T18:08:41.047Z,97780.59
2022-09-30T18:11:07.563Z,97788.94
2022-09-30T18:13:34.033Z,97787.75
2022-09-30T18:16:05.654Z,97786.75
2022-09-30T18:18:34.158Z,97788.38
2022-09-30T18:21:00.529Z,97797.63
2022-09-30T18:23:27.927Z,97785.69
2022-09-30T18:25:56.006Z,97788.72
2022-09-30T18:28:22.476Z,97788.72
2022-09-30T18:30:48.944Z,97773.75
2022-09-30T18:33:17.207Z,97773.50
2022-09-30T18:35:44.007Z,97745.03
2022-09-30T18:38:13.509Z,97770.16
2022-09-30T18:40:42.138Z,97763.09
2022-09-30T18:43:13.863Z,97764.50
2022-09-30T18:45:40.828Z,97761.44
2022-09-30T18:48:08.302Z,97761.09
2022-09-30T18:50:35.142Z,97764.34
2022-09-30T18:53:09.499Z,97769.91
2022-09-30T18:55:39.260Z,97782.19
2022-09-30T18:58:06.223Z,97781.50
2022-09-30T19:00:32.775Z,97787.03
2022-09-30T19:02:59.249Z,97788.75
2022-09-30T19:05:25.717Z,97779.91
2022-09-30T19:07:53.451Z,97788.78
2022-09-30T19:10:20.570Z,97795.72
2022-09-30T19:12:47.055Z,97804.81
2022-09-30T19:15:17.475Z,97813.00
2022-09-30T19:17:45.060Z,97794.69
2022-09-30T19:20:12.398Z,97787.75
2022-09-30T19:22:38.789Z,97779.66
2022-09-30T19:25:06.987Z,97783.09
2022-09-30T19:27:35.941Z,97789.00
2022-09-30T19:30:02.582Z,97787.44
2022-09-30T19:32:34.200Z,97785.28
2022-09-30T19:35:06.714Z,97795.13
2022-09-30T19:37:34.297Z,97797.78
2022-09-30T19:40:10.902Z,97811.00
2022-09-30T19:42:42.603Z,97802.06
2022-09-30T19:45:09.068Z,97805.16
2022-09-30T19:47:36.470Z,97807.81
2022-09-30T19:50:04.144Z,97804.22
2022-09-30T19:52:30.605Z,97818.22
2022-09-30T19:55:05.923Z,97809.22
2022-09-30T19:57:37.613Z,97807.56
2022-09-30T20:00:05.492Z,97818.50
2022-09-30T20:02:35.900Z,97825.91
2022-09-30T20:05:03.819Z,97818.75
2022-09-30T20:07:30.254Z,97809.78
2022-09-30T20:09:56.742Z,97815.59
2022-09-30T20:12:23.824Z,97817.22
2022-09-30T20:15:08.987Z,97825.38
2022-09-30T20:17:35.841Z,97816.16
2022-09-30T20:20:20.938Z,97794.28
2022-09-30T20:22:47.383Z,97807.84
2022-09-30T20:25:13.928Z,97796.09
2022-09-30T20:27:42.814Z,97790.66
2022-09-30T20:30:09.778Z,97792.69
2022-09-30T20:32:36.158Z,97798.47
2022-09-30T20:35:02.889Z,97806.44
2022-09-30T20:37:30.385Z,97809.84
2022-09-30T20:39:57.628Z,97809.19
2022-09-30T20:42:25.551Z,97789.47
2022-09-30T20:44:51.936Z,97781.88
2022-09-30T20:47:18.526Z,97814.50
2022-09-30T20:49:44.883Z,97828.50
2022-09-30T20:52:11.454Z,97830.09
2022-09-30T20:54:38.254Z,97828.91
2022-09-30T20:57:08.170Z,97830.69
2022-09-30T20:59:34.729Z,97836.41
2022-09-30T21:02:01.179Z,97830.00
2022-09-30T21:04:27.647Z,97842.38
2022-09-30T21:06:54.267Z,97842.59
2022-09-30T21:09:20.725Z,97818.31
2022-09-30T21:11:47.147Z,97837.09
2022-09-30T21:14:17.944Z,97827.94
2022-09-30T21:16:44.362Z,97832.47
2022-09-30T21:19:10.897Z,97808.59
2022-09-30T21:21:37.262Z,97829.97
2022-09-30T21:24:03.835Z,97817.72
2022-09-30T21:26:30.358Z,97821.03
2022-09-30T21:28:56.737Z,97803.47
2022-09-30T21:31:26.715Z,97814.66
2022-09-30T21:33:58.729Z,97796.13
2022-09-30T21:36:27.046Z,97784.16
2022-09-30T21:38:54.775Z,97788.84
2022-09-30T21:41:21.368Z,97787.69
2022-09-30T21:43:47.858Z,97788.88
2022-09-30T21:46:15.465Z,97773.44
2022-09-30T21:48:42.435Z,97787.69
2022-09-30T21:51:09.813Z,97780.38
2022-09-30T21:53:36.926Z,97765.34
2022-09-30T21:56:04.521Z,97787.53
2022-09-30T21:58:32.719Z,97775.88
2022-09-30T22:01:01.876Z,97782.25
2022-09-30T22:03:37.686Z,97778.75
2022-09-30T22:06:07.314Z,97785.06
2022-09-30T22:08:39.108Z,97755.59
2022-09-30T22:11:11.082Z,97786.47
2022-09-30T22:13:40.606Z,97750.97
2022-09-30T22:16:07.697Z,97782.88
2022-09-30T22:18:35.477Z,97783.91
2022-09-30T22:21:13.288Z,97790.75
2022-09-30T22:23:40.494Z,97788.13
2022-09-30T22:26:17.229Z,97783.28
2022-09-30T22:28:46.542Z,97774.81
2022-09-30T22:31:19.846Z,97781.97
2022-09-30T22:34:10.384Z,97791.97
2022-09-30T22:36:56.121Z,97790.53
2022-09-30T22:39:23.767Z,97786.59
2022-09-30T22:41:52.986Z,97763.78
2022-09-30T22:44:25.363Z,97775.47
2022-09-30T22:46:53.234Z,97772.59
2022-09-30T22:49:20.479Z,97771.47
2022-09-30T22:51:51.285Z,97769.72
2022-09-30T22:54:17.781Z,97762.66
2022-09-30T22:56:44.610Z,97750.19
2022-09-30T22:59:11.085Z,97769.94
2022-09-30T23:01:37.492Z,97732.91
2022-09-30T23:04:04.108Z,97759.72
2022-09-30T23:06:32.267Z,97759.44
2022-09-30T23:08:58.700Z,97742.16
2022-09-30T23:11:25.951Z,97764.06
2022-09-30T23:13:56.848Z,97770.03
2022-09-30T23:16:26.119Z,97776.13
2022-09-30T23:18:52.920Z,97775.13
2022-09-30T23:21:20.451Z,97761.34
2022-09-30T23:23:50.530Z,97774.97
2022-09-30T23:26:28.213Z,97768.81
2022-09-30T23:28:58.680Z,97764.03
2022-09-30T23:31:25.464Z,97757.47
2022-09-30T23:33:54.288Z,97760.03
2022-09-30T23:36:26.396Z,97656.63
2022-09-30T23:38:53.422Z,97753.88
2022-09-30T23:41:20.321Z,97725.00
2022-09-30T23:43:48.435Z,97735.13
2022-09-30T23:46:17.046Z,97736.47
2022-09-30T23:48:45.720Z,97717.97
2022-09-30T23:51:13.394Z,97742.97
2022-09-30T23:53:40.039Z,97746.22
2022-09-30T23:56:10.181Z,97738.44
2022-09-30T23:58:36.927Z,97735.56
